Prairie, Illinois
Current Conditions -  °F | °C
As of 8:35 PM on Sunday 23 Nov 2014 (Local Time) from KCUL Reporting Station
Light Rain Light Rain  
Wind Chill: 57°   Ceiling: 700
Heat Index: 57°   Visibility: 10mi
Dew Point: 56°   Wind: 13mph
Humidity: 99%   Direction: 220°SW
Pressure: 29.27"   Gusts: 18mph
Location:  38.1945°N, 88.2116°W
Report Text: KCUL 240235Z AUTO 22011G16KT 10SM -RA BKN007 OVC012 14/14 A2927 RMK AO2 P0002 T01370136
Loading
Personal Weather Stations






























Interactive Weather Map New forecast layout! Learn more

10-Day Weather Forecast

Advertisements
Track Severe Weather on mobile